Pewee Valley, Kentucky
Current Conditions -  °F | °C
As of 7:53 PM on Monday 22 Dec 2014 (Local Time) from KLOU Reporting Station
Broken Clouds Broken Clouds  
Wind Chill: 53°   Ceiling: 7500
Heat Index: 53°   Visibility: 10mi
Dew Point: 42°   Wind: 7mph
Humidity: 66%   Direction: 120°ESE
Pressure: 29.72"   Gusts: NA
Location:  38.31°N, 85.49°W
Report Text: KLOU 230053Z 12006KT 10SM BKN075 BKN085 12/06 A2972 RMK AO2 SLP065 T01170056
Loading
Personal Weather Stations






























Interactive Weather Map New forecast layout! Learn more

10-Day Weather Forecast

Advertisements
Track Severe Weather on mobile